富士山静岡空港METAR/TAF(約33km東):

RJNS 250900Z 24007KT 210V270 9999 FEW020 26/17 Q1012

TAF RJNS 250505Z 2506/2612 24012KT 9999 FEW020 BECMG 2513/2515 34004KT FEW005 BKN008 TEMPO 2515/2521 4000 BR FEW002 BKN004 BECMG 2521/2600 14006KT FEW015 SCT025 BECMG 2603/2606 24010KT


風向風力(Windy.com):
スマホでの閲覧には、アプリ版Windy(Android/iOS)が適切です。